createdAt,value
2019-01-19T00:00:08.788Z,93.85
2019-01-19T00:06:51.516Z,93.93
2019-01-19T00:09:29.522Z,94.02
2019-01-19T00:12:35.820Z,94.09
2019-01-19T00:15:21.104Z,93.98
2019-01-19T00:21:50.545Z,93.87
2019-01-19T00:25:14.593Z,94.06
2019-01-19T00:35:31.791Z,94.25
2019-01-19T00:42:02.820Z,94.38
2019-01-19T00:45:36.423Z,94.57
2019-01-19T00:48:39.371Z,94.66
2019-01-19T00:51:56.126Z,94.71
2019-01-19T00:55:17.847Z,94.71
2019-01-19T01:02:10.767Z,94.76
2019-01-19T01:05:25.362Z,94.84
2019-01-19T01:08:50.426Z,94.78
2019-01-19T01:12:08.577Z,94.83
2019-01-19T01:15:04.919Z,94.89
2019-01-19T01:18:15.717Z,94.81
2019-01-19T01:21:41.173Z,94.77
2019-01-19T01:24:51.164Z,94.81
2019-01-19T01:27:56.585Z,94.79
2019-01-19T01:34:35.649Z,95.02
2019-01-19T01:41:39.118Z,95.10
2019-01-19T01:45:03.266Z,94.99
2019-01-19T01:48:10.880Z,94.95
2019-01-19T01:54:59.165Z,94.96
2019-01-19T01:57:51.866Z,95.10
2019-01-19T02:00:48.447Z,95.16
2019-01-19T02:03:50.285Z,95.12
2019-01-19T02:06:39.811Z,95.08
2019-01-19T02:09:20.555Z,95.27
2019-01-19T02:12:43.569Z,95.18
2019-01-19T02:15:33.890Z,95.21
2019-01-19T02:22:21.100Z,95.19
2019-01-19T02:25:20.046Z,95.23
2019-01-19T02:28:26.020Z,95.31
2019-01-19T02:32:07.141Z,95.29
2019-01-19T02:39:15.398Z,95.42
2019-01-19T02:46:26.679Z,95.48
2019-01-19T02:49:35.870Z,95.54
2019-01-19T02:52:59.056Z,95.56
2019-01-19T02:56:05.363Z,95.46
2019-01-19T02:59:15.885Z,95.40
2019-01-19T03:05:47.969Z,95.36
2019-01-19T03:09:04.500Z,95.46
2019-01-19T03:12:32.571Z,95.43
2019-01-19T03:15:40.245Z,95.55
2019-01-19T03:18:34.394Z,95.50
2019-01-19T03:21:43.902Z,95.58
2019-01-19T03:24:29.373Z,95.54
2019-01-19T03:27:49.852Z,95.53
2019-01-19T03:34:31.433Z,95.31
2019-01-19T03:45:08.816Z,95.38
2019-01-19T03:48:24.131Z,95.41
2019-01-19T03:51:37.692Z,95.47
2019-01-19T03:57:51.054Z,95.40
2019-01-19T04:01:14.338Z,95.36
2019-01-19T04:04:21.813Z,95.36
2019-01-19T04:07:21.622Z,95.27
2019-01-19T04:13:57.873Z,95.42
2019-01-19T04:17:07.889Z,95.42
2019-01-19T04:19:56.006Z,95.35
2019-01-19T04:22:45.248Z,95.44
2019-01-19T04:25:19.611Z,95.42
2019-01-19T04:27:49.248Z,95.57
2019-01-19T04:30:18.812Z,95.54
2019-01-19T04:32:48.468Z,95.58
2019-01-19T04:35:18.507Z,95.56
2019-01-19T04:37:48.064Z,95.56
2019-01-19T04:40:17.668Z,95.67
2019-01-19T04:42:47.789Z,95.65
2019-01-19T04:45:17.438Z,95.61
2019-01-19T04:47:46.894Z,95.64
2019-01-19T04:50:16.790Z,95.66
2019-01-19T04:52:46.330Z,95.67
2019-01-19T04:55:16.052Z,95.70
2019-01-19T04:57:46.588Z,95.79
2019-01-19T05:00:18.356Z,95.82
2019-01-19T05:02:48.086Z,95.81
2019-01-19T05:05:17.654Z,95.64
2019-01-19T05:07:47.266Z,95.90
2019-01-19T05:10:16.940Z,96.05
2019-01-19T05:12:46.619Z,96.02
2019-01-19T05:15:18.973Z,95.95
2019-01-19T05:17:48.679Z,96.04
2019-01-19T05:20:18.368Z,95.98
2019-01-19T05:22:47.876Z,95.93
2019-01-19T05:25:17.559Z,96.02
2019-01-19T05:27:47.043Z,96.08
2019-01-19T05:30:35.498Z,96.08
2019-01-19T05:33:05.015Z,96.08
2019-01-19T05:35:34.704Z,96.15
2019-01-19T05:38:04.290Z,96.07
2019-01-19T05:40:33.957Z,96.04
2019-01-19T05:43:03.625Z,96.04
2019-01-19T05:45:33.282Z,96.10
2019-01-19T05:48:02.946Z,96.22
2019-01-19T05:50:32.599Z,96.30
2019-01-19T05:53:02.222Z,96.38
2019-01-19T05:55:31.766Z,96.33
2019-01-19T05:58:01.440Z,96.16
2019-01-19T06:00:35.894Z,96.10
2019-01-19T06:05:56.552Z,96.15
2019-01-19T06:08:26.078Z,96.12
2019-01-19T06:10:55.756Z,96.11
2019-01-19T06:13:25.367Z,96.09
2019-01-19T06:15:54.999Z,96.13
2019-01-19T06:18:24.519Z,96.12
2019-01-19T06:21:55.175Z,96.37
2019-01-19T06:24:25.092Z,96.37
2019-01-19T06:26:54.910Z,96.31
2019-01-19T06:29:24.516Z,96.32
2019-01-19T06:31:54.216Z,96.24
2019-01-19T06:34:23.733Z,96.11
2019-01-19T06:36:55.100Z,96.24
2019-01-19T06:42:31.692Z,96.38
2019-01-19T06:45:01.336Z,96.32
2019-01-19T06:47:30.993Z,96.37
2019-01-19T06:50:00.408Z,96.35
2019-01-19T06:52:30.054Z,96.29
2019-01-19T06:54:59.684Z,96.26
2019-01-19T06:57:29.331Z,96.19
2019-01-19T06:59:59.477Z,96.28
2019-01-19T07:02:49.959Z,96.15
2019-01-19T07:05:19.474Z,96.15
2019-01-19T07:07:49.081Z,96.20
2019-01-19T07:10:20.963Z,96.15
2019-01-19T07:12:52.845Z,96.05
2019-01-19T07:15:22.427Z,95.98
2019-01-19T07:17:52.097Z,96.18
2019-01-19T07:23:29.171Z,95.77
2019-01-19T07:26:29.239Z,96.46
2019-01-19T07:28:58.977Z,95.98
2019-01-19T07:31:28.567Z,95.98
2019-01-19T07:33:58.208Z,96.33
2019-01-19T07:36:27.707Z,96.41
2019-01-19T07:39:03.525Z,96.10
2019-01-19T07:41:52.037Z,96.13
2019-01-19T07:44:21.740Z,96.13
2019-01-19T07:47:10.781Z,96.38
2019-01-19T07:49:40.462Z,96.24
2019-01-19T07:52:10.238Z,96.24
2019-01-19T07:54:39.861Z,96.41
2019-01-19T07:59:47.451Z,96.51
2019-01-19T08:02:17.166Z,96.94
2019-01-19T08:04:46.817Z,96.94
2019-01-19T08:07:17.385Z,96.69
2019-01-19T08:09:47.334Z,96.69
2019-01-19T08:12:53.222Z,96.93
2019-01-19T08:15:25.043Z,96.93
2019-01-19T08:17:54.832Z,96.81
2019-01-19T08:20:24.586Z,96.81
2019-01-19T08:22:54.394Z,96.91
2019-01-19T08:25:24.114Z,97.07
2019-01-19T08:27:53.736Z,96.98
2019-01-19T08:30:28.340Z,97.05
2019-01-19T08:32:57.894Z,97.18
2019-01-19T08:38:13.381Z,97.26
2019-01-19T08:41:47.793Z,97.27
2019-01-19T08:44:19.048Z,97.38
2019-01-19T08:46:49.275Z,97.49
2019-01-19T08:49:18.790Z,97.46
2019-01-19T08:51:48.330Z,97.43
2019-01-19T08:54:17.946Z,97.47
2019-01-19T08:56:47.708Z,97.47
2019-01-19T08:59:17.330Z,97.52
2019-01-19T09:01:47.028Z,97.58
2019-01-19T09:04:16.620Z,97.62
2019-01-19T09:06:46.148Z,97.63
2019-01-19T09:09:15.710Z,97.64
2019-01-19T09:11:45.296Z,97.67
2019-01-19T09:14:14.825Z,97.66
2019-01-19T09:16:44.628Z,97.68
2019-01-19T09:19:14.263Z,97.69
2019-01-19T09:21:43.909Z,97.65
2019-01-19T09:24:40.706Z,97.66
2019-01-19T09:27:10.383Z,97.69
2019-01-19T09:29:39.965Z,97.73
2019-01-19T09:32:09.960Z,97.74
2019-01-19T09:34:39.478Z,97.68
2019-01-19T09:37:09.105Z,97.65
2019-01-19T09:39:38.918Z,97.64
2019-01-19T09:42:08.460Z,97.67
2019-01-19T09:44:38.188Z,97.69
2019-01-19T09:47:07.908Z,97.63
2019-01-19T09:49:37.465Z,97.61
2019-01-19T09:52:07.308Z,97.55
2019-01-19T09:54:36.973Z,97.54
2019-01-19T09:57:06.625Z,97.48
2019-01-19T09:59:36.102Z,97.46
2019-01-19T10:02:05.832Z,97.46
2019-01-19T10:04:35.496Z,97.44
2019-01-19T10:07:05.397Z,97.44
2019-01-19T10:09:35.117Z,97.37
2019-01-19T10:12:04.704Z,97.30
2019-01-19T10:14:34.366Z,97.33
2019-01-19T10:17:04.104Z,97.21
2019-01-19T10:19:33.765Z,97.20
2019-01-19T10:22:03.399Z,97.18
2019-01-19T10:24:33.143Z,97.10
2019-01-19T10:27:02.762Z,97.03
2019-01-19T10:29:32.289Z,97.04
2019-01-19T10:32:01.750Z,97.10
2019-01-19T10:34:31.458Z,96.94
2019-01-19T10:37:01.132Z,96.77
2019-01-19T10:39:30.803Z,96.76
2019-01-19T10:42:00.281Z,96.73
2019-01-19T10:44:29.985Z,96.64
2019-01-19T10:47:03.718Z,96.49
2019-01-19T10:49:33.298Z,96.30
2019-01-19T10:52:02.816Z,96.22
2019-01-19T10:54:32.322Z,96.13
2019-01-19T10:57:01.860Z,96.12
2019-01-19T10:59:31.512Z,95.96
2019-01-19T11:02:02.588Z,95.83
2019-01-19T11:04:32.614Z,95.77
2019-01-19T11:07:02.260Z,95.68
2019-01-19T11:09:31.821Z,95.42
2019-01-19T11:12:01.400Z,95.29
2019-01-19T11:14:31.126Z,95.24
2019-01-19T11:17:00.782Z,95.17
2019-01-19T11:19:30.392Z,94.99
2019-01-19T11:21:59.925Z,94.90
2019-01-19T11:24:29.536Z,94.83
2019-01-19T11:26:58.990Z,94.91
2019-01-19T11:29:28.684Z,94.54
2019-01-19T11:31:58.186Z,94.35
2019-01-19T11:34:27.842Z,94.22
2019-01-19T11:36:57.417Z,94.02
2019-01-19T11:39:27.203Z,93.60
2019-01-19T11:41:56.670Z,93.70
2019-01-19T11:44:26.197Z,93.51
2019-01-19T11:46:55.796Z,93.56
2019-01-19T11:49:25.545Z,93.47
2019-01-19T11:51:55.448Z,93.26
2019-01-19T11:54:25.180Z,93.04
2019-01-19T11:56:54.782Z,93.26
2019-01-19T11:59:24.460Z,92.80
2019-01-19T12:01:54.153Z,92.80
2019-01-19T12:04:23.943Z,91.55
2019-01-19T12:06:53.705Z,92.35
2019-01-19T12:09:23.333Z,92.24
2019-01-19T12:11:52.822Z,91.76
2019-01-19T12:14:22.455Z,92.46
2019-01-19T12:16:52.091Z,91.67
2019-01-19T12:19:21.747Z,91.55
2019-01-19T12:21:51.563Z,91.56
2019-01-19T12:24:21.255Z,91.14
2019-01-19T12:26:50.792Z,90.25
2019-01-19T12:29:20.399Z,90.60
2019-01-19T12:31:49.960Z,90.71
2019-01-19T12:34:19.539Z,90.33
2019-01-19T12:36:49.263Z,89.91
2019-01-19T12:39:18.870Z,90.19
2019-01-19T12:41:48.608Z,90.12
2019-01-19T12:44:18.614Z,90.04
2019-01-19T12:46:48.174Z,89.69
2019-01-19T12:49:17.791Z,89.27
2019-01-19T12:51:47.469Z,88.97
2019-01-19T12:54:16.995Z,88.56
2019-01-19T12:56:46.653Z,88.55
2019-01-19T12:59:16.190Z,88.48
2019-01-19T13:01:45.875Z,88.32
2019-01-19T13:04:15.668Z,88.38
2019-01-19T13:06:59.282Z,87.88
2019-01-19T13:09:44.895Z,87.60
2019-01-19T13:12:35.128Z,87.30
2019-01-19T13:15:58.147Z,86.70
2019-01-19T13:18:39.617Z,87.18
2019-01-19T13:21:35.656Z,86.29
2019-01-19T13:24:16.817Z,86.08
2019-01-19T13:27:01.634Z,86.11
2019-01-19T13:30:24.478Z,86.46
2019-01-19T13:33:15.797Z,86.11
2019-01-19T13:36:16.197Z,85.73
2019-01-19T13:39:28.635Z,84.96
2019-01-19T13:42:29.705Z,84.71
2019-01-19T13:45:42.422Z,85.07
2019-01-19T13:49:00.676Z,84.75
2019-01-19T13:51:44.576Z,84.55
2019-01-19T13:54:57.097Z,83.96
2019-01-19T13:57:54.414Z,83.26
2019-01-19T14:00:47.820Z,83.04
2019-01-19T14:04:07.522Z,82.95
2019-01-19T14:07:05.718Z,83.42
2019-01-19T14:10:31.607Z,81.95
2019-01-19T14:13:36.723Z,82.34
2019-01-19T14:16:31.636Z,82.51
2019-01-19T14:19:40.881Z,83.27
2019-01-19T14:22:45.405Z,83.01
2019-01-19T14:25:35.579Z,81.24
2019-01-19T14:28:56.789Z,80.62
2019-01-19T14:32:08.735Z,80.18
2019-01-19T14:35:21.617Z,79.48
2019-01-19T14:38:27.944Z,78.20
2019-01-19T14:41:38.903Z,78.01
2019-01-19T14:44:44.539Z,75.91
2019-01-19T14:47:41.657Z,75.42
2019-01-19T14:50:21.610Z,76.40
2019-01-19T14:53:32.136Z,76.36
2019-01-19T14:56:24.597Z,76.42
2019-01-19T14:59:24.950Z,76.32
2019-01-19T15:02:43.657Z,75.98
2019-01-19T15:05:54.207Z,75.93
2019-01-19T15:09:09.025Z,76.13
2019-01-19T15:12:14.926Z,76.04
2019-01-19T15:15:05.345Z,75.29
2019-01-19T15:18:26.904Z,75.00
2019-01-19T15:21:51.116Z,74.95
2019-01-19T15:24:54.688Z,74.41
2019-01-19T15:28:21.770Z,74.45
2019-01-19T15:31:45.769Z,74.37
2019-01-19T15:35:01.961Z,74.64
2019-01-19T15:38:01.936Z,75.16
2019-01-19T15:40:56.345Z,75.49
2019-01-19T15:43:55.645Z,75.78
2019-01-19T15:47:03.737Z,76.00
2019-01-19T15:50:21.594Z,76.18
2019-01-19T15:53:05.545Z,76.52
2019-01-19T15:56:06.152Z,76.79
2019-01-19T15:59:12.239Z,77.00
2019-01-19T16:02:10.326Z,77.25
2019-01-19T16:05:19.418Z,77.58
2019-01-19T16:08:25.595Z,77.83
2019-01-19T16:11:17.527Z,78.12
2019-01-19T16:14:39.336Z,78.36
2019-01-19T16:17:46.886Z,78.77
2019-01-19T16:20:48.558Z,79.04
2019-01-19T16:23:54.895Z,79.47
2019-01-19T16:30:04.789Z,79.92
2019-01-19T16:33:28.671Z,80.33
2019-01-19T16:37:02.866Z,80.58
2019-01-19T16:40:13.939Z,80.92
2019-01-19T16:50:45.438Z,81.90
2019-01-19T16:53:45.204Z,82.23
2019-01-19T16:56:52.954Z,82.53
2019-01-19T17:00:24.161Z,82.69
2019-01-19T17:03:58.716Z,82.89
2019-01-19T17:10:52.229Z,83.55
2019-01-19T17:13:58.419Z,83.78
2019-01-19T17:16:46.330Z,84.09
2019-01-19T17:23:09.754Z,84.49
2019-01-19T17:26:17.416Z,84.79
2019-01-19T17:29:10.045Z,84.89
2019-01-19T17:39:45.531Z,85.50
2019-01-19T17:50:10.759Z,86.19
2019-01-19T17:57:18.715Z,86.52
2019-01-19T18:00:07.045Z,86.69
2019-01-19T18:03:02.620Z,86.82
2019-01-19T18:06:10.247Z,87.12
2019-01-19T18:15:34.995Z,87.44
2019-01-19T18:18:59.678Z,87.36
2019-01-19T18:21:47.846Z,87.36
2019-01-19T18:24:55.467Z,87.78
2019-01-19T18:28:01.969Z,87.88
2019-01-19T18:33:58.165Z,88.21
2019-01-19T18:37:05.915Z,88.41
2019-01-19T18:40:19.144Z,88.37
2019-01-19T18:43:11.807Z,88.45
2019-01-19T18:46:04.470Z,88.74
2019-01-19T18:48:58.784Z,88.87
2019-01-19T18:51:54.645Z,89.17
2019-01-19T18:59:03.847Z,89.05
2019-01-19T19:02:12.818Z,89.19
2019-01-19T19:05:07.865Z,89.29
2019-01-19T19:08:15.570Z,89.57
2019-01-19T19:11:29.607Z,89.47
2019-01-19T19:14:24.120Z,89.34
2019-01-19T19:17:31.858Z,89.56
2019-01-19T19:20:13.323Z,89.80
2019-01-19T19:23:19.286Z,89.80
2019-01-19T19:26:26.943Z,89.93
2019-01-19T19:29:34.724Z,89.89
2019-01-19T19:32:42.326Z,89.89
2019-01-19T19:35:49.956Z,90.12
2019-01-19T19:38:52.975Z,90.12
2019-01-19T19:41:34.579Z,90.33
2019-01-19T19:44:45.157Z,90.33
2019-01-19T19:47:52.740Z,90.77
2019-01-19T19:50:46.601Z,90.77
2019-01-19T19:53:16.710Z,90.58
2019-01-19T19:56:04.448Z,90.85
2019-01-19T19:58:34.557Z,90.76
2019-01-19T20:01:04.678Z,90.67
2019-01-19T20:03:34.765Z,90.74
2019-01-19T20:06:04.932Z,90.77
2019-01-19T20:08:34.736Z,90.77
2019-01-19T20:11:23.543Z,91.18
2019-01-19T20:13:53.603Z,90.98
2019-01-19T20:16:23.811Z,90.98
2019-01-19T20:18:53.899Z,90.87
2019-01-19T20:21:23.798Z,91.04
2019-01-19T20:23:53.948Z,91.46
2019-01-19T20:26:24.028Z,91.46
2019-01-19T20:28:54.174Z,91.25
2019-01-19T20:31:43.009Z,91.08
2019-01-19T20:34:13.189Z,91.08
2019-01-19T20:36:43.358Z,91.43
2019-01-19T20:39:13.416Z,91.46
2019-01-19T20:41:43.386Z,91.45
2019-01-19T20:44:13.352Z,91.55
2019-01-19T20:46:43.549Z,91.66
2019-01-19T20:49:49.984Z,91.52
2019-01-19T20:52:20.054Z,91.52
2019-01-19T20:54:49.999Z,91.79
2019-01-19T20:57:19.989Z,91.97
2019-01-19T20:59:51.366Z,91.92
2019-01-19T21:02:21.500Z,91.92
2019-01-19T21:04:51.677Z,92.02
2019-01-19T21:07:21.690Z,92.09
2019-01-19T21:10:10.575Z,92.03
2019-01-19T21:12:40.678Z,92.42
2019-01-19T21:15:12.458Z,92.02
2019-01-19T21:17:43.067Z,92.02
2019-01-19T21:20:13.766Z,92.44
2019-01-19T21:22:43.657Z,92.37
2019-01-19T21:25:14.157Z,92.37
2019-01-19T21:27:44.238Z,92.35
2019-01-19T21:30:36.128Z,92.42
2019-01-19T21:33:06.028Z,92.44
2019-01-19T21:35:35.891Z,92.60
2019-01-19T21:38:42.114Z,92.72
2019-01-19T21:41:12.016Z,92.72
2019-01-19T21:43:43.228Z,92.58
2019-01-19T21:46:13.213Z,92.51
2019-01-19T21:48:42.778Z,92.45
2019-01-19T21:51:12.339Z,92.71
2019-01-19T21:53:42.000Z,92.71
2019-01-19T21:56:11.681Z,92.40
2019-01-19T21:58:41.414Z,92.52
2019-01-19T22:01:11.141Z,92.59
2019-01-19T22:03:40.779Z,92.45
2019-01-19T22:06:10.319Z,92.45
2019-01-19T22:08:39.956Z,92.77
2019-01-19T22:11:10.579Z,92.84
2019-01-19T22:13:40.303Z,92.84
2019-01-19T22:16:09.955Z,92.89
2019-01-19T22:18:39.623Z,93.03
2019-01-19T22:21:09.197Z,92.73
2019-01-19T22:23:38.841Z,92.84
2019-01-19T22:26:10.116Z,92.84
2019-01-19T22:28:39.644Z,92.84
2019-01-19T22:31:09.163Z,92.60
2019-01-19T22:33:38.858Z,92.75
2019-01-19T22:36:08.578Z,92.77
2019-01-19T22:38:38.263Z,92.92
2019-01-19T22:41:07.807Z,93.00
2019-01-19T22:43:37.411Z,93.17
2019-01-19T22:46:07.091Z,93.17
2019-01-19T22:48:36.603Z,93.07
2019-01-19T22:51:11.218Z,92.94
2019-01-19T22:53:37.509Z,92.94
2019-01-19T22:56:07.007Z,93.04
2019-01-19T22:58:36.682Z,92.91
2019-01-19T23:01:47.287Z,93.08
2019-01-19T23:04:17.056Z,93.09
2019-01-19T23:06:46.746Z,92.98
2019-01-19T23:09:16.467Z,93.08
2019-01-19T23:11:46.057Z,93.08
2019-01-19T23:14:15.788Z,93.06
2019-01-19T23:16:45.403Z,92.73
2019-01-19T23:19:15.037Z,92.85
2019-01-19T23:21:44.527Z,92.91
2019-01-19T23:24:14.179Z,92.89
2019-01-19T23:26:43.996Z,92.98
2019-01-19T23:29:13.717Z,93.00
2019-01-19T23:31:43.520Z,93.11
2019-01-19T23:34:13.097Z,93.12
2019-01-19T23:36:42.736Z,93.20
2019-01-19T23:39:12.698Z,93.20
2019-01-19T23:41:42.308Z,93.40
2019-01-19T23:44:11.895Z,93.37
2019-01-19T23:46:41.670Z,93.33
2019-01-19T23:49:11.357Z,93.52
2019-01-19T23:51:41.027Z,93.68
2019-01-19T23:54:10.718Z,93.67
2019-01-19T23:56:40.378Z,93.71
2019-01-19T23:59:10.023Z,93.79
